Pointe-Lebel, Canada
Current Conditions -  °F | °C
As of 3:00 AM on Saturday 25 Oct 2014 (Local Time) from CYBC Reporting Station
Overcast Overcast  
Wind Chill:   Ceiling: 20000
Heat Index:   Visibility: 9mi
Dew Point:   Wind: 3mph
Humidity: 81%   Direction: 350°N
Pressure: 29.69"   Gusts: NA
Location:  49.15°N, 68.2°W
Report Text: CYBC 250700Z AUTO 35003KT 9SM OVC200 04/01 A2969 RMK SLP053
Loading
Personal Weather Stations






























Interactive Weather Map
Tropical Storm Tracking
New forecast layout! Learn more

10-Day Weather Forecast

Advertisements
Track Severe Weather on mobile